東京理科大学Ⅰ部体育局航空部

このエントリーをはてなブックマークに追加

ようこそ、理科大航空部HPへ! ここでは、航空部に関する情報や、活動などをお知らせしています。


METAR・TAF

TOKYO INTERNATIONAL
Metar
RJTT 200800Z 23013G23KT CAVOK 27/16 Q1003 NOSIG RMK A2964 MOD TURB OBS AT 0732Z 10NM S DAIGO BTN FL180 AND FL160 IN DES BY B763 AND OBS AT 0745Z HILLS BTN FL150 AND FL180 IN CMB BY B772

08:00 UTC

Wind: 230° 13kt

Visibility:

Sky:

Temp: 27 deg C / 80.6 deg F

Dewpoint: 16 deg C / 60.8 deg F

Pressure: 1003 hPa

TAF
TAF RJTT 200512Z 2006/2112 21014KT 9999 FEW030 BECMG 2016/2018 36008KT BECMG 2103/2106 18012KT
NARITA INTERNATIONAL
Metar
RJAA 200800Z 19004KT 9999 FEW020 BKN180 BKN/// 23/19 Q1004 NOSIG RMK 1CU020 6AC180 A2965

08:00 UTC

Wind: 190° 4kt

Visibility: 9999 m

Sky: FEW 2000 ft

Temp: 23 deg C / 73.4 deg F

Dewpoint: 19 deg C / 66.2 deg F

Pressure: 1004 hPa

TAF
TAF RJAA 200505Z 2006/2112 22010KT 9999 FEW030 BECMG 2014/2016 27005KT BECMG 2103/2106 14008KT BECMG 2109/2112 05005KT